sim
Sign-in with your pilot id or email,
or register
Callsign
Passwort

Schedule Details

Flight Number: DLH2183 (2)
Departure: Paderborn Lippstadt Airport (EDLP) at 05:15
Arrival: Munich Airport (EDDM) at 06:15
Route: Lufthansa Passenger Schedule. Enter filed route here before submitting Pirep.

Weather Information
Getting current METAR information for EDLP 240420Z 26017G37KT 230V300 2900 SHRA FEW011 BKN015CB OVC039 14/11 Q1002
Getting current METAR information for EDDM 240420Z VRB02KT CAVOK 09/09 Q1009 NOSIG

Schedule Frequency

Route Map